sensor_id;sensor_type;location;lat;lon;timestamp;P1;durP1;ratioP1;P2;durP2;ratioP2
64738;SDS011;51175;51.186;0.276;2023-07-16T00:00:28;22.00;;;12.45;;
64738;SDS011;51175;51.186;0.276;2023-07-16T00:00:59;19.90;;;11.10;;
64738;SDS011;51175;51.186;0.276;2023-07-16T00:01:29;17.77;;;10.10;;
64738;SDS011;51175;51.186;0.276;2023-07-16T00:01:59;24.13;;;11.43;;
64738;SDS011;51175;51.186;0.276;2023-07-16T00:02:30;22.50;;;11.30;;
64738;SDS011;51175;51.186;0.276;2023-07-16T00:03:00;22.88;;;12.65;;
64738;SDS011;51175;51.186;0.276;2023-07-16T00:03:31;21.02;;;11.52;;
64738;SDS011;51175;51.186;0.276;2023-07-16T00:04:01;18.15;;;10.10;;
64738;SDS011;51175;51.186;0.276;2023-07-16T00:04:32;24.33;;;12.00;;
64738;SDS011;51175;51.186;0.276;2023-07-16T00:05:02;18.27;;;10.93;;
64738;SDS011;51175;51.186;0.276;2023-07-16T00:05:34;20.73;;;11.40;;
64738;SDS011;51175;51.186;0.276;2023-07-16T00:06:06;21.05;;;10.50;;
64738;SDS011;51175;51.186;0.276;2023-07-16T00:06:37;16.17;;;9.18;;
64738;SDS011;51175;51.186;0.276;2023-07-16T00:07:07;19.40;;;10.90;;
64738;SDS011;51175;51.186;0.276;2023-07-16T00:07:37;18.92;;;10.20;;
64738;SDS011;51175;51.186;0.276;2023-07-16T00:08:08;20.48;;;10.60;;
64738;SDS011;51175;51.186;0.276;2023-07-16T00:08:38;18.27;;;9.77;;
64738;SDS011;51175;51.186;0.276;2023-07-16T00:09:08;16.73;;;8.45;;
64738;SDS011;51175;51.186;0.276;2023-07-16T00:09:39;20.10;;;9.20;;
64738;SDS011;51175;51.186;0.276;2023-07-16T00:10:09;17.33;;;9.50;;
64738;SDS011;51175;51.186;0.276;2023-07-16T00:10:40;16.50;;;11.75;;
64738;SDS011;51175;51.186;0.276;2023-07-16T00:11:10;18.17;;;8.63;;
64738;SDS011;51175;51.186;0.276;2023-07-16T00:11:40;19.52;;;9.88;;
64738;SDS011;51175;51.186;0.276;2023-07-16T00:12:11;25.08;;;10.50;;
64738;SDS011;51175;51.186;0.276;2023-07-16T00:12:41;17.60;;;9.70;;
64738;SDS011;51175;51.186;0.276;2023-07-16T00:13:11;18.60;;;9.25;;
64738;SDS011;51175;51.186;0.276;2023-07-16T00:13:42;20.25;;;8.10;;
64738;SDS011;51175;51.186;0.276;2023-07-16T00:14:17;19.70;;;9.77;;
64738;SDS011;51175;51.186;0.276;2023-07-16T00:14:47;17.65;;;9.48;;
64738;SDS011;51175;51.186;0.276;2023-07-16T00:15:18;16.40;;;9.18;;
64738;SDS011;51175;51.186;0.276;2023-07-16T00:15:48;16.65;;;8.80;;
64738;SDS011;51175;51.186;0.276;2023-07-16T00:16:19;17.48;;;8.85;;
64738;SDS011;51175;51.186;0.276;2023-07-16T00:16:49;16.15;;;8.95;;
64738;SDS011;51175;51.186;0.276;2023-07-16T00:17:19;15.32;;;8.32;;
64738;SDS011;51175;51.186;0.276;2023-07-16T00:17:50;18.73;;;9.63;;
64738;SDS011;51175;51.186;0.276;2023-07-16T00:18:20;17.27;;;9.00;;
64738;SDS011;51175;51.186;0.276;2023-07-16T00:18:51;19.02;;;9.10;;
64738;SDS011;51175;51.186;0.276;2023-07-16T00:19:24;19.60;;;8.50;;
64738;SDS011;51175;51.186;0.276;2023-07-16T00:19:54;20.48;;;8.90;;
64738;SDS011;51175;51.186;0.276;2023-07-16T00:20:25;20.73;;;10.05;;
64738;SDS011;51175;51.186;0.276;2023-07-16T00:20:55;14.85;;;7.78;;
64738;SDS011;51175;51.186;0.276;2023-07-16T00:21:25;16.50;;;7.70;;
64738;SDS011;51175;51.186;0.276;2023-07-16T00:21:56;15.38;;;7.13;;
64738;SDS011;51175;51.186;0.276;2023-07-16T00:22:26;16.80;;;7.47;;
64738;SDS011;51175;51.186;0.276;2023-07-16T00:22:57;16.77;;;7.80;;
64738;SDS011;51175;51.186;0.276;2023-07-16T00:23:27;15.75;;;7.70;;
64738;SDS011;51175;51.186;0.276;2023-07-16T00:23:58;13.68;;;7.57;;
64738;SDS011;51175;51.186;0.276;2023-07-16T00:24:28;20.90;;;8.63;;
64738;SDS011;51175;51.186;0.276;2023-07-16T00:24:59;18.67;;;8.32;;
64738;SDS011;51175;51.186;0.276;2023-07-16T00:25:29;18.02;;;8.48;;
64738;SDS011;51175;51.186;0.276;2023-07-16T00:26:00;15.23;;;7.07;;
64738;SDS011;51175;51.186;0.276;2023-07-16T00:26:30;13.93;;;7.80;;
64738;SDS011;51175;51.186;0.276;2023-07-16T00:27:03;13.52;;;6.88;;
64738;SDS011;51175;51.186;0.276;2023-07-16T00:27:33;18.33;;;8.35;;
64738;SDS011;51175;51.186;0.276;2023-07-16T00:28:04;16.88;;;7.85;;
64738;SDS011;51175;51.186;0.276;2023-07-16T00:28:34;14.13;;;7.40;;
64738;SDS011;51175;51.186;0.276;2023-07-16T00:29:05;18.75;;;8.25;;
64738;SDS011;51175;51.186;0.276;2023-07-16T00:29:35;15.75;;;7.55;;
64738;SDS011;51175;51.186;0.276;2023-07-16T00:30:07;17.02;;;7.47;;
64738;SDS011;51175;51.186;0.276;2023-07-16T00:30:38;15.18;;;7.72;;
64738;SDS011;51175;51.186;0.276;2023-07-16T00:31:09;18.20;;;7.00;;
64738;SDS011;51175;51.186;0.276;2023-07-16T00:31:40;16.75;;;7.82;;
64738;SDS011;51175;51.186;0.276;2023-07-16T00:32:10;15.98;;;7.65;;
64738;SDS011;51175;51.186;0.276;2023-07-16T00:32:41;13.57;;;6.72;;
64738;SDS011;51175;51.186;0.276;2023-07-16T00:33:11;15.15;;;7.35;;
64738;SDS011;51175;51.186;0.276;2023-07-16T00:33:42;15.90;;;7.63;;
64738;SDS011;51175;51.186;0.276;2023-07-16T00:34:12;14.05;;;7.10;;
64738;SDS011;51175;51.186;0.276;2023-07-16T00:34:43;16.17;;;9.00;;
64738;SDS011;51175;51.186;0.276;2023-07-16T00:35:13;15.52;;;6.90;;
64738;SDS011;51175;51.186;0.276;2023-07-16T00:35:47;16.27;;;8.32;;
64738;SDS011;51175;51.186;0.276;2023-07-16T00:36:19;15.88;;;7.15;;
64738;SDS011;51175;51.186;0.276;2023-07-16T00:36:50;16.83;;;7.13;;
64738;SDS011;51175;51.186;0.276;2023-07-16T00:37:20;16.98;;;7.82;;
64738;SDS011;51175;51.186;0.276;2023-07-16T00:37:50;14.00;;;6.10;;
64738;SDS011;51175;51.186;0.276;2023-07-16T00:38:21;16.05;;;6.50;;
64738;SDS011;51175;51.186;0.276;2023-07-16T00:38:52;12.80;;;6.28;;
64738;SDS011;51175;51.186;0.276;2023-07-16T00:39:22;17.50;;;7.40;;
64738;SDS011;51175;51.186;0.276;2023-07-16T00:39:53;11.73;;;6.40;;
64738;SDS011;51175;51.186;0.276;2023-07-16T00:40:23;18.60;;;6.80;;
64738;SDS011;51175;51.186;0.276;2023-07-16T00:40:53;12.07;;;6.20;;
64738;SDS011;51175;51.186;0.276;2023-07-16T00:41:24;13.93;;;6.55;;
64738;SDS011;51175;51.186;0.276;2023-07-16T00:41:54;11.93;;;6.30;;
64738;SDS011;51175;51.186;0.276;2023-07-16T00:42:25;12.55;;;6.97;;
64738;SDS011;51175;51.186;0.276;2023-07-16T00:42:56;12.95;;;5.60;;
64738;SDS011;51175;51.186;0.276;2023-07-16T00:43:26;13.25;;;6.30;;
64738;SDS011;51175;51.186;0.276;2023-07-16T00:43:56;13.55;;;6.53;;
64738;SDS011;51175;51.186;0.276;2023-07-16T00:44:27;17.70;;;7.15;;
64738;SDS011;51175;51.186;0.276;2023-07-16T00:44:57;13.80;;;6.68;;
64738;SDS011;51175;51.186;0.276;2023-07-16T00:45:27;11.68;;;5.57;;
64738;SDS011;51175;51.186;0.276;2023-07-16T00:45:58;12.45;;;5.80;;
64738;SDS011;51175;51.186;0.276;2023-07-16T00:46:28;14.38;;;6.50;;
64738;SDS011;51175;51.186;0.276;2023-07-16T00:46:59;13.98;;;6.32;;
64738;SDS011;51175;51.186;0.276;2023-07-16T00:47:29;15.70;;;6.03;;
64738;SDS011;51175;51.186;0.276;2023-07-16T00:48:00;18.40;;;7.03;;
64738;SDS011;51175;51.186;0.276;2023-07-16T00:48:31;13.50;;;5.60;;
64738;SDS011;51175;51.186;0.276;2023-07-16T00:49:01;15.27;;;5.30;;
64738;SDS011;51175;51.186;0.276;2023-07-16T00:49:32;11.15;;;5.20;;
64738;SDS011;51175;51.186;0.276;2023-07-16T00:50:02;15.15;;;6.78;;
64738;SDS011;51175;51.186;0.276;2023-07-16T00:50:33;14.27;;;7.53;;
64738;SDS011;51175;51.186;0.276;2023-07-16T00:51:09;13.75;;;5.82;;
64738;SDS011;51175;51.186;0.276;2023-07-16T00:51:39;12.82;;;5.65;;
64738;SDS011;51175;51.186;0.276;2023-07-16T00:52:11;15.20;;;6.00;;
64738;SDS011;51175;51.186;0.276;2023-07-16T00:52:46;12.93;;;6.30;;
64738;SDS011;51175;51.186;0.276;2023-07-16T00:53:17;13.20;;;6.63;;
64738;SDS011;51175;51.186;0.276;2023-07-16T00:53:50;15.30;;;5.43;;
64738;SDS011;51175;51.186;0.276;2023-07-16T00:54:20;13.90;;;6.13;;
64738;SDS011;51175;51.186;0.276;2023-07-16T00:54:52;16.13;;;5.97;;
64738;SDS011;51175;51.186;0.276;2023-07-16T00:55:23;12.20;;;5.95;;
64738;SDS011;51175;51.186;0.276;2023-07-16T00:55:53;15.88;;;5.78;;
64738;SDS011;51175;51.186;0.276;2023-07-16T00:56:23;12.23;;;5.00;;
64738;SDS011;51175;51.186;0.276;2023-07-16T00:56:54;17.75;;;5.95;;
64738;SDS011;51175;51.186;0.276;2023-07-16T00:57:25;14.00;;;5.97;;
64738;SDS011;51175;51.186;0.276;2023-07-16T00:57:57;10.70;;;5.70;;
64738;SDS011;51175;51.186;0.276;2023-07-16T00:58:32;12.32;;;6.07;;
64738;SDS011;51175;51.186;0.276;2023-07-16T00:59:03;14.93;;;5.80;;
64738;SDS011;51175;51.186;0.276;2023-07-16T00:59:33;14.20;;;6.22;;
64738;SDS011;51175;51.186;0.276;2023-07-16T01:00:04;12.20;;;5.18;;
64738;SDS011;51175;51.186;0.276;2023-07-16T01:00:35;11.23;;;5.93;;
64738;SDS011;51175;51.186;0.276;2023-07-16T01:01:07;15.13;;;5.43;;
64738;SDS011;51175;51.186;0.276;2023-07-16T01:01:38;17.35;;;6.55;;
64738;SDS011;51175;51.186;0.276;2023-07-16T01:02:09;10.07;;;4.78;;
64738;SDS011;51175;51.186;0.276;2023-07-16T01:02:40;11.48;;;5.00;;
64738;SDS011;51175;51.186;0.276;2023-07-16T01:03:11;11.60;;;5.55;;
64738;SDS011;51175;51.186;0.276;2023-07-16T01:03:44;15.35;;;5.43;;
64738;SDS011;51175;51.186;0.276;2023-07-16T01:04:15;15.60;;;6.72;;
64738;SDS011;51175;51.186;0.276;2023-07-16T01:04:46;12.13;;;5.78;;
64738;SDS011;51175;51.186;0.276;2023-07-16T01:05:16;15.55;;;5.57;;
64738;SDS011;51175;51.186;0.276;2023-07-16T01:06:41;12.50;;;5.95;;
64738;SDS011;51175;51.186;0.276;2023-07-16T01:07:15;14.43;;;5.70;;
64738;SDS011;51175;51.186;0.276;2023-07-16T01:07:51;15.50;;;5.15;;
64738;SDS011;51175;51.186;0.276;2023-07-16T01:08:30;16.05;;;5.47;;
64738;SDS011;51175;51.186;0.276;2023-07-16T01:09:20;9.73;;;4.97;;
64738;SDS011;51175;51.186;0.276;2023-07-16T01:09:50;12.95;;;4.57;;
64738;SDS011;51175;51.186;0.276;2023-07-16T01:10:23;12.75;;;5.18;;
64738;SDS011;51175;51.186;0.276;2023-07-16T01:10:55;12.23;;;5.00;;
64738;SDS011;51175;51.186;0.276;2023-07-16T01:11:26;13.60;;;4.97;;
64738;SDS011;51175;51.186;0.276;2023-07-16T01:11:57;12.68;;;5.32;;
64738;SDS011;51175;51.186;0.276;2023-07-16T01:12:29;12.38;;;5.05;;
64738;SDS011;51175;51.186;0.276;2023-07-16T01:13:02;12.27;;;4.90;;
64738;SDS011;51175;51.186;0.276;2023-07-16T01:13:34;13.27;;;5.65;;
64738;SDS011;51175;51.186;0.276;2023-07-16T01:14:05;11.43;;;5.30;;
64738;SDS011;51175;51.186;0.276;2023-07-16T01:14:36;13.50;;;6.18;;
64738;SDS011;51175;51.186;0.276;2023-07-16T01:15:09;12.55;;;5.15;;
64738;SDS011;51175;51.186;0.276;2023-07-16T01:15:39;10.45;;;4.15;;
64738;SDS011;51175;51.186;0.276;2023-07-16T01:16:19;15.73;;;5.35;;
64738;SDS011;51175;51.186;0.276;2023-07-16T01:16:53;9.60;;;4.70;;
64738;SDS011;51175;51.186;0.276;2023-07-16T01:17:28;11.55;;;4.28;;
64738;SDS011;51175;51.186;0.276;2023-07-16T01:17:59;10.60;;;4.97;;
64738;SDS011;51175;51.186;0.276;2023-07-16T01:18:30;13.90;;;5.07;;
64738;SDS011;51175;51.186;0.276;2023-07-16T01:19:00;8.55;;;4.43;;
64738;SDS011;51175;51.186;0.276;2023-07-16T01:19:30;15.48;;;5.20;;
64738;SDS011;51175;51.186;0.276;2023-07-16T01:20:01;9.95;;;3.70;;
64738;SDS011;51175;51.186;0.276;2023-07-16T01:20:31;11.10;;;5.90;;
64738;SDS011;51175;51.186;0.276;2023-07-16T01:21:02;11.25;;;4.75;;
64738;SDS011;51175;51.186;0.276;2023-07-16T01:21:34;10.20;;;4.18;;
64738;SDS011;51175;51.186;0.276;2023-07-16T01:22:13;13.10;;;4.75;;
64738;SDS011;51175;51.186;0.276;2023-07-16T01:26:53;11.23;;;4.18;;
64738;SDS011;51175;51.186;0.276;2023-07-16T01:30:24;17.40;;;4.75;;
64738;SDS011;51175;51.186;0.276;2023-07-16T01:30:58;11.23;;;4.60;;
64738;SDS011;51175;51.186;0.276;2023-07-16T01:31:28;11.75;;;3.97;;
64738;SDS011;51175;51.186;0.276;2023-07-16T01:32:00;11.10;;;3.95;;
64738;SDS011;51175;51.186;0.276;2023-07-16T01:32:33;14.20;;;4.80;;
64738;SDS011;51175;51.186;0.276;2023-07-16T01:33:04;12.00;;;5.13;;
64738;SDS011;51175;51.186;0.276;2023-07-16T01:33:35;11.68;;;4.40;;
64738;SDS011;51175;51.186;0.276;2023-07-16T01:34:07;11.75;;;3.92;;
64738;SDS011;51175;51.186;0.276;2023-07-16T01:34:40;11.52;;;4.13;;
64738;SDS011;51175;51.186;0.276;2023-07-16T01:35:11;9.98;;;4.40;;
64738;SDS011;51175;51.186;0.276;2023-07-16T01:35:43;10.93;;;4.38;;
64738;SDS011;51175;51.186;0.276;2023-07-16T01:36:17;10.23;;;3.88;;
64738;SDS011;51175;51.186;0.276;2023-07-16T01:36:49;16.17;;;4.88;;
64738;SDS011;51175;51.186;0.276;2023-07-16T01:37:20;9.20;;;3.72;;
64738;SDS011;51175;51.186;0.276;2023-07-16T01:37:50;8.30;;;3.83;;
64738;SDS011;51175;51.186;0.276;2023-07-16T01:38:21;9.20;;;3.97;;
64738;SDS011;51175;51.186;0.276;2023-07-16T01:38:53;12.98;;;5.15;;
64738;SDS011;51175;51.186;0.276;2023-07-16T01:39:23;13.63;;;5.07;;
64738;SDS011;51175;51.186;0.276;2023-07-16T01:39:54;12.00;;;4.22;;
64738;SDS011;51175;51.186;0.276;2023-07-16T01:40:25;9.45;;;3.90;;
64738;SDS011;51175;51.186;0.276;2023-07-16T01:40:55;12.82;;;4.68;;
64738;SDS011;51175;51.186;0.276;2023-07-16T01:41:26;12.15;;;4.50;;
64738;SDS011;51175;51.186;0.276;2023-07-16T01:41:56;7.18;;;3.40;;
64738;SDS011;51175;51.186;0.276;2023-07-16T01:42:26;14.48;;;4.18;;
64738;SDS011;51175;51.186;0.276;2023-07-16T01:42:57;10.05;;;3.40;;
64738;SDS011;51175;51.186;0.276;2023-07-16T01:43:27;10.68;;;4.00;;
64738;SDS011;51175;51.186;0.276;2023-07-16T01:43:58;8.20;;;2.95;;
64738;SDS011;51175;51.186;0.276;2023-07-16T01:44:29;11.05;;;4.47;;
64738;SDS011;51175;51.186;0.276;2023-07-16T01:44:59;10.93;;;3.97;;
64738;SDS011;51175;51.186;0.276;2023-07-16T01:45:29;7.72;;;3.58;;
64738;SDS011;51175;51.186;0.276;2023-07-16T01:46:00;10.25;;;3.55;;
64738;SDS011;51175;51.186;0.276;2023-07-16T01:46:31;10.95;;;3.85;;
64738;SDS011;51175;51.186;0.276;2023-07-16T01:47:04;10.55;;;3.88;;
64738;SDS011;51175;51.186;0.276;2023-07-16T01:48:49;10.65;;;4.18;;
64738;SDS011;51175;51.186;0.276;2023-07-16T01:49:19;11.85;;;3.75;;
64738;SDS011;51175;51.186;0.276;2023-07-16T01:49:50;9.52;;;3.63;;
64738;SDS011;51175;51.186;0.276;2023-07-16T01:50:20;9.25;;;3.50;;
64738;SDS011;51175;51.186;0.276;2023-07-16T01:50:50;10.18;;;3.92;;
64738;SDS011;51175;51.186;0.276;2023-07-16T01:51:21;11.90;;;3.65;;
64738;SDS011;51175;51.186;0.276;2023-07-16T01:51:51;14.07;;;3.78;;
64738;SDS011;51175;51.186;0.276;2023-07-16T01:52:21;11.50;;;3.58;;
64738;SDS011;51175;51.186;0.276;2023-07-16T01:52:52;9.27;;;3.58;;
64738;SDS011;51175;51.186;0.276;2023-07-16T01:53:22;13.98;;;4.25;;
64738;SDS011;51175;51.186;0.276;2023-07-16T01:53:53;10.63;;;3.95;;
64738;SDS011;51175;51.186;0.276;2023-07-16T01:54:23;9.15;;;3.45;;
64738;SDS011;51175;51.186;0.276;2023-07-16T01:54:53;13.68;;;3.92;;
64738;SDS011;51175;51.186;0.276;2023-07-16T01:55:24;11.30;;;3.20;;
64738;SDS011;51175;51.186;0.276;2023-07-16T01:55:54;8.75;;;3.63;;
64738;SDS011;51175;51.186;0.276;2023-07-16T01:56:25;10.65;;;3.20;;
64738;SDS011;51175;51.186;0.276;2023-07-16T01:56:55;11.32;;;3.17;;
64738;SDS011;51175;51.186;0.276;2023-07-16T01:57:25;10.00;;;3.08;;
64738;SDS011;51175;51.186;0.276;2023-07-16T01:57:56;9.48;;;3.65;;
64738;SDS011;51175;51.186;0.276;2023-07-16T01:58:26;8.15;;;3.35;;
64738;SDS011;51175;51.186;0.276;2023-07-16T01:58:56;8.40;;;3.55;;
64738;SDS011;51175;51.186;0.276;2023-07-16T01:59:27;8.40;;;3.45;;
64738;SDS011;51175;51.186;0.276;2023-07-16T01:59:57;8.43;;;3.25;;
64738;SDS011;51175;51.186;0.276;2023-07-16T02:00:27;7.85;;;3.80;;
64738;SDS011;51175;51.186;0.276;2023-07-16T02:00:58;13.10;;;4.30;;
64738;SDS011;51175;51.186;0.276;2023-07-16T02:01:28;9.65;;;3.80;;
64738;SDS011;51175;51.186;0.276;2023-07-16T02:01:59;8.32;;;2.97;;
64738;SDS011;51175;51.186;0.276;2023-07-16T02:02:29;8.02;;;3.45;;
64738;SDS011;51175;51.186;0.276;2023-07-16T02:03:00;10.77;;;3.17;;
64738;SDS011;51175;51.186;0.276;2023-07-16T02:03:30;8.75;;;3.33;;
64738;SDS011;51175;51.186;0.276;2023-07-16T02:04:00;11.35;;;3.28;;
64738;SDS011;51175;51.186;0.276;2023-07-16T02:04:31;11.02;;;3.67;;
64738;SDS011;51175;51.186;0.276;2023-07-16T02:05:01;10.38;;;3.75;;
64738;SDS011;51175;51.186;0.276;2023-07-16T02:05:31;8.75;;;3.92;;
64738;SDS011;51175;51.186;0.276;2023-07-16T02:06:02;17.73;;;3.90;;
64738;SDS011;51175;51.186;0.276;2023-07-16T02:06:32;7.45;;;3.10;;
64738;SDS011;51175;51.186;0.276;2023-07-16T02:07:03;10.70;;;3.13;;
64738;SDS011;51175;51.186;0.276;2023-07-16T02:07:33;7.57;;;3.28;;
64738;SDS011;51175;51.186;0.276;2023-07-16T02:08:03;7.78;;;2.63;;
64738;SDS011;51175;51.186;0.276;2023-07-16T02:08:34;12.00;;;3.63;;
64738;SDS011;51175;51.186;0.276;2023-07-16T02:09:04;9.00;;;3.25;;
64738;SDS011;51175;51.186;0.276;2023-07-16T02:09:35;10.30;;;3.58;;
64738;SDS011;51175;51.186;0.276;2023-07-16T02:10:05;9.48;;;3.20;;
64738;SDS011;51175;51.186;0.276;2023-07-16T02:10:36;6.78;;;2.90;;
64738;SDS011;51175;51.186;0.276;2023-07-16T02:11:06;11.20;;;4.85;;
64738;SDS011;51175;51.186;0.276;2023-07-16T02:11:37;10.35;;;3.58;;
64738;SDS011;51175;51.186;0.276;2023-07-16T02:12:07;10.23;;;4.32;;
64738;SDS011;51175;51.186;0.276;2023-07-16T02:12:37;12.57;;;4.18;;
64738;SDS011;51175;51.186;0.276;2023-07-16T02:13:08;8.57;;;3.80;;
64738;SDS011;51175;51.186;0.276;2023-07-16T02:13:38;11.68;;;3.40;;
64738;SDS011;51175;51.186;0.276;2023-07-16T02:14:09;12.27;;;3.45;;
64738;SDS011;51175;51.186;0.276;2023-07-16T02:14:39;12.70;;;4.38;;
64738;SDS011;51175;51.186;0.276;2023-07-16T02:15:09;8.52;;;3.15;;
64738;SDS011;51175;51.186;0.276;2023-07-16T02:15:40;9.88;;;3.72;;
64738;SDS011;51175;51.186;0.276;2023-07-16T02:16:10;13.05;;;2.90;;
64738;SDS011;51175;51.186;0.276;2023-07-16T02:16:40;8.65;;;3.05;;
64738;SDS011;51175;51.186;0.276;2023-07-16T02:17:11;8.23;;;2.83;;
64738;SDS011;51175;51.186;0.276;2023-07-16T02:17:41;11.35;;;3.50;;
64738;SDS011;51175;51.186;0.276;2023-07-16T02:18:11;10.20;;;4.03;;
64738;SDS011;51175;51.186;0.276;2023-07-16T02:18:42;12.40;;;3.03;;
64738;SDS011;51175;51.186;0.276;2023-07-16T02:19:12;10.27;;;3.45;;
64738;SDS011;51175;51.186;0.276;2023-07-16T02:19:43;7.53;;;2.70;;
64738;SDS011;51175;51.186;0.276;2023-07-16T02:20:13;8.95;;;3.67;;
64738;SDS011;51175;51.186;0.276;2023-07-16T02:20:43;11.90;;;3.42;;
64738;SDS011;51175;51.186;0.276;2023-07-16T02:21:14;15.27;;;3.65;;
64738;SDS011;51175;51.186;0.276;2023-07-16T02:21:44;10.43;;;4.18;;
64738;SDS011;51175;51.186;0.276;2023-07-16T02:22:15;8.48;;;3.67;;
64738;SDS011;51175;51.186;0.276;2023-07-16T02:22:48;10.65;;;3.38;;
64738;SDS011;51175;51.186;0.276;2023-07-16T02:23:18;7.50;;;2.40;;
64738;SDS011;51175;51.186;0.276;2023-07-16T02:23:49;9.70;;;3.28;;
64738;SDS011;51175;51.186;0.276;2023-07-16T02:24:19;11.80;;;3.20;;
64738;SDS011;51175;51.186;0.276;2023-07-16T02:24:49;7.53;;;3.20;;
64738;SDS011;51175;51.186;0.276;2023-07-16T02:25:20;9.15;;;3.25;;
64738;SDS011;51175;51.186;0.276;2023-07-16T02:25:50;9.57;;;2.75;;
64738;SDS011;51175;51.186;0.276;2023-07-16T02:26:20;9.07;;;3.47;;
64738;SDS011;51175;51.186;0.276;2023-07-16T02:26:51;11.48;;;3.50;;
64738;SDS011;51175;51.186;0.276;2023-07-16T02:27:21;7.47;;;2.60;;
64738;SDS011;51175;51.186;0.276;2023-07-16T02:27:52;8.55;;;2.95;;
64738;SDS011;51175;51.186;0.276;2023-07-16T02:28:22;9.57;;;3.88;;
64738;SDS011;51175;51.186;0.276;2023-07-16T02:28:53;11.20;;;3.50;;
64738;SDS011;51175;51.186;0.276;2023-07-16T02:29:23;10.30;;;3.60;;
64738;SDS011;51175;51.186;0.276;2023-07-16T02:29:53;5.85;;;2.50;;
64738;SDS011;51175;51.186;0.276;2023-07-16T02:30:24;8.05;;;3.03;;
64738;SDS011;51175;51.186;0.276;2023-07-16T02:30:54;8.18;;;2.80;;
64738;SDS011;51175;51.186;0.276;2023-07-16T02:31:24;10.98;;;3.75;;
64738;SDS011;51175;51.186;0.276;2023-07-16T02:31:55;8.98;;;2.85;;
64738;SDS011;51175;51.186;0.276;2023-07-16T02:32:25;8.73;;;3.00;;
64738;SDS011;51175;51.186;0.276;2023-07-16T02:32:56;10.55;;;3.25;;
64738;SDS011;51175;51.186;0.276;2023-07-16T02:33:26;9.30;;;3.00;;
64738;SDS011;51175;51.186;0.276;2023-07-16T02:33:56;9.60;;;2.63;;
64738;SDS011;51175;51.186;0.276;2023-07-16T02:34:27;9.75;;;2.97;;
64738;SDS011;51175;51.186;0.276;2023-07-16T02:34:57;8.13;;;2.97;;
64738;SDS011;51175;51.186;0.276;2023-07-16T02:35:27;7.55;;;2.55;;
64738;SDS011;51175;51.186;0.276;2023-07-16T02:35:58;9.32;;;2.72;;
64738;SDS011;51175;51.186;0.276;2023-07-16T02:36:28;10.60;;;3.15;;
64738;SDS011;51175;51.186;0.276;2023-07-16T02:36:58;9.10;;;3.22;;
64738;SDS011;51175;51.186;0.276;2023-07-16T02:37:29;12.50;;;3.10;;
64738;SDS011;51175;51.186;0.276;2023-07-16T02:37:59;8.30;;;2.83;;
64738;SDS011;51175;51.186;0.276;2023-07-16T02:38:29;7.50;;;2.45;;
64738;SDS011;51175;51.186;0.276;2023-07-16T02:39:00;7.97;;;2.65;;
64738;SDS011;51175;51.186;0.276;2023-07-16T02:39:30;8.10;;;3.92;;
64738;SDS011;51175;51.186;0.276;2023-07-16T02:40:00;8.80;;;2.97;;
64738;SDS011;51175;51.186;0.276;2023-07-16T02:40:31;11.85;;;3.40;;
64738;SDS011;51175;51.186;0.276;2023-07-16T02:41:01;8.27;;;3.03;;
64738;SDS011;51175;51.186;0.276;2023-07-16T02:41:32;6.00;;;2.33;;
64738;SDS011;51175;51.186;0.276;2023-07-16T02:42:02;12.77;;;3.67;;
64738;SDS011;51175;51.186;0.276;2023-07-16T02:42:33;10.50;;;2.95;;
64738;SDS011;51175;51.186;0.276;2023-07-16T02:43:03;10.23;;;3.10;;
64738;SDS011;51175;51.186;0.276;2023-07-16T02:43:33;11.70;;;3.45;;
64738;SDS011;51175;51.186;0.276;2023-07-16T02:44:04;7.82;;;3.35;;
64738;SDS011;51175;51.186;0.276;2023-07-16T02:44:35;8.77;;;3.00;;
64738;SDS011;51175;51.186;0.276;2023-07-16T02:45:11;10.23;;;2.90;;
64738;SDS011;51175;51.186;0.276;2023-07-16T02:45:42;10.82;;;3.60;;
64738;SDS011;51175;51.186;0.276;2023-07-16T02:46:12;9.77;;;3.28;;
64738;SDS011;51175;51.186;0.276;2023-07-16T02:46:42;16.13;;;3.33;;
64738;SDS011;51175;51.186;0.276;2023-07-16T02:47:14;7.97;;;2.65;;
64738;SDS011;51175;51.186;0.276;2023-07-16T02:47:44;9.38;;;3.45;;
64738;SDS011;51175;51.186;0.276;2023-07-16T02:48:15;7.72;;;2.33;;
64738;SDS011;51175;51.186;0.276;2023-07-16T02:48:45;8.40;;;3.28;;
64738;SDS011;51175;51.186;0.276;2023-07-16T02:49:16;14.48;;;4.05;;
64738;SDS011;51175;51.186;0.276;2023-07-16T02:49:46;10.18;;;2.92;;
64738;SDS011;51175;51.186;0.276;2023-07-16T02:50:20;13.68;;;3.05;;
64738;SDS011;51175;51.186;0.276;2023-07-16T02:50:50;7.95;;;2.60;;
64738;SDS011;51175;51.186;0.276;2023-07-16T02:51:21;10.00;;;3.67;;
64738;SDS011;51175;51.186;0.276;2023-07-16T02:51:51;11.65;;;5.05;;
64738;SDS011;51175;51.186;0.276;2023-07-16T02:52:21;9.43;;;3.20;;
64738;SDS011;51175;51.186;0.276;2023-07-16T02:52:52;11.52;;;3.63;;
64738;SDS011;51175;51.186;0.276;2023-07-16T02:53:22;7.30;;;2.53;;
64738;SDS011;51175;51.186;0.276;2023-07-16T02:53:52;9.82;;;3.10;;
64738;SDS011;51175;51.186;0.276;2023-07-16T02:54:23;8.50;;;2.97;;
64738;SDS011;51175;51.186;0.276;2023-07-16T02:54:53;9.18;;;2.78;;
64738;SDS011;51175;51.186;0.276;2023-07-16T02:55:23;8.70;;;3.28;;
64738;SDS011;51175;51.186;0.276;2023-07-16T02:55:54;8.80;;;3.08;;
64738;SDS011;51175;51.186;0.276;2023-07-16T02:56:24;7.88;;;2.75;;
64738;SDS011;51175;51.186;0.276;2023-07-16T02:56:54;10.15;;;2.92;;
64738;SDS011;51175;51.186;0.276;2023-07-16T02:57:25;10.23;;;2.60;;
64738;SDS011;51175;51.186;0.276;2023-07-16T02:57:55;9.73;;;3.28;;
64738;SDS011;51175;51.186;0.276;2023-07-16T02:58:26;9.98;;;3.15;;
64738;SDS011;51175;51.186;0.276;2023-07-16T02:58:56;8.15;;;2.63;;
64738;SDS011;51175;51.186;0.276;2023-07-16T02:59:27;8.63;;;2.40;;
64738;SDS011;51175;51.186;0.276;2023-07-16T02:59:57;10.98;;;2.70;;
64738;SDS011;51175;51.186;0.276;2023-07-16T03:00:27;12.10;;;3.15;;
64738;SDS011;51175;51.186;0.276;2023-07-16T03:00:58;10.90;;;3.10;;
64738;SDS011;51175;51.186;0.276;2023-07-16T03:01:28;12.13;;;3.33;;
64738;SDS011;51175;51.186;0.276;2023-07-16T03:01:59;10.88;;;3.03;;
64738;SDS011;51175;51.186;0.276;2023-07-16T03:02:29;10.90;;;4.10;;
64738;SDS011;51175;51.186;0.276;2023-07-16T03:03:00;9.93;;;3.25;;
64738;SDS011;51175;51.186;0.276;2023-07-16T03:03:30;6.97;;;2.70;;
64738;SDS011;51175;51.186;0.276;2023-07-16T03:04:00;8.50;;;2.28;;
64738;SDS011;51175;51.186;0.276;2023-07-16T03:04:31;8.50;;;3.35;;
64738;SDS011;51175;51.186;0.276;2023-07-16T03:05:01;9.60;;;2.72;;
64738;SDS011;51175;51.186;0.276;2023-07-16T03:05:32;9.57;;;3.22;;
64738;SDS011;51175;51.186;0.276;2023-07-16T03:06:02;14.27;;;3.15;;
64738;SDS011;51175;51.186;0.276;2023-07-16T03:06:33;6.15;;;2.97;;
64738;SDS011;51175;51.186;0.276;2023-07-16T03:07:03;9.48;;;2.33;;
64738;SDS011;51175;51.186;0.276;2023-07-16T03:07:34;8.45;;;2.45;;
64738;SDS011;51175;51.186;0.276;2023-07-16T03:08:04;15.43;;;3.60;;
64738;SDS011;51175;51.186;0.276;2023-07-16T03:08:35;6.80;;;2.15;;
64738;SDS011;51175;51.186;0.276;2023-07-16T03:09:05;8.70;;;2.65;;
64738;SDS011;51175;51.186;0.276;2023-07-16T03:09:35;10.98;;;4.20;;
64738;SDS011;51175;51.186;0.276;2023-07-16T03:10:06;8.82;;;2.75;;
64738;SDS011;51175;51.186;0.276;2023-07-16T03:10:36;8.07;;;2.47;;
64738;SDS011;51175;51.186;0.276;2023-07-16T03:11:07;9.45;;;2.75;;
64738;SDS011;51175;51.186;0.276;2023-07-16T03:11:37;9.35;;;2.92;;
64738;SDS011;51175;51.186;0.276;2023-07-16T03:12:08;6.95;;;2.67;;
64738;SDS011;51175;51.186;0.276;2023-07-16T03:12:38;6.15;;;2.25;;
64738;SDS011;51175;51.186;0.276;2023-07-16T03:13:08;7.43;;;2.92;;
64738;SDS011;51175;51.186;0.276;2023-07-16T03:13:39;7.60;;;3.30;;